• Join FlightAware (Why Join?)
  • Login
  • US Flag 
06:16AM EDT


 

Airport Tracker/Info


-or-


 

Live Flight TrackerFlight Track Log ✈ SKW6290 ✈ 22-Sep-2013 ✈ KPSP - KSFO

Flight Track Log - Related Links

Times and Time Zones

All times are in EDT time to prevent confusion due to time zone crossing. See the SKW6290 flight status page for this flight to view local times or setup timezone preferences in your user account.

Time Position Orientation Groundspeed Altitude Reporting Facility
EDT Latitude Longitude Course Direction KTS MPH feet Rate Location/Type
09:13PM 33.8981 -116.5569 330° Northwest 218 251 26,000  Level Los Angeles Center
09:15PM 34.0925 -116.8833 342° North  Level Estimated
09:15PM 34.0364 -116.5303 North 269 310 8,500  Level Los Angeles Center
09:16PM 34.1581 -116.9779 270° West  Level Estimated
09:16PM 34.1122 -116.5239 North 272 313 11,200  Level Los Angeles Center
09:17PM 34.2235 -117.0725 281° West  Level Estimated
09:17PM 34.1803 -116.5508 342° North 278 320 13,000  Level Los Angeles Center
09:18PM 34.2764 -116.5875 343° North 303 349 14,500 1,380 Climbing Los Angeles Center
09:19PM 34.3603 -116.6194 343° North 315 362 15,900 1,260 Climbing Los Angeles Center
09:20PM 34.4125 -116.6992 308° West 323 372 17,200 1,200 Climbing Los Angeles Center
09:21PM 34.4281 -116.8106 280° West 334 384 18,500 1,080 Climbing Los Angeles Center
09:22PM 34.4461 -116.9206 281° West 333 383 19,500 720 Climbing Los Angeles Center
09:23PM 34.4658 -117.0350 282° West 345 397 20,000 240 Climbing Los Angeles Center
09:24PM 34.4889 -117.1786 281° West 360 414 20,000  Level Los Angeles Center
09:25PM 34.5092 -117.3028 281° West 370 426 20,000 480 Level Los Angeles Center
09:26PM 34.5289 -117.4250 281° West 370 426 21,000 780 Climbing Los Angeles Center
09:27PM 34.5481 -117.5519 280° West 380 437 21,700 960 Climbing Los Angeles Center
09:28PM 34.5683 -117.6717 282° West 365 420 23,000 1,080 Climbing Los Angeles Center
09:29PM 34.5878 -117.7914 281° West 362 417 24,000 480 Climbing Los Angeles Center
09:30PM 34.6047 -117.9128 280° West 365 420 24,000  Level Los Angeles Center
09:31PM 34.6256 -118.0378 281° West 375 432 24,000  Level Los Angeles Center
09:32PM 34.6861 -118.1683 299° West 376 433 24,000 240 Level Los Angeles Center
09:33PM 34.7456 -118.2758 304° West 380 437 24,500 780 Climbing Los Angeles Center
09:34PM 34.7997 -118.3775 303° West 367 422 25,700 720 Climbing Los Angeles Center
09:35PM 34.8597 -118.4850 304° West 361 415 26,000 120 Climbing Los Angeles Center
09:37PM 34.9169 -118.5936 303° West 376 433 26,000  Level Los Angeles Center
09:38PM 34.9753 -118.6997 304° West 378 435 26,000  Level Los Angeles Center
09:39PM 35.0319 -118.8047 303° West 375 432 26,000  Level Los Angeles Center
09:40PM 35.0875 -118.9117 302° West 373 429 26,000  Level Los Angeles Center
09:41PM 35.1381 -119.0194 300° West 371 427 26,000  Level Los Angeles Center
09:42PM 35.1933 -119.1558 296° West 374 430 26,000  Level Los Angeles Center
09:43PM 35.2411 -119.2700 297° West 380 437 26,000  Level Los Angeles Center
09:44PM 35.2886 -119.3842 297° West 378 435 26,000  Level Los Angeles Center
09:45PM 35.3361 -119.4986 297° West 378 435 26,000  Level Los Angeles Center
09:46PM 35.3839 -119.6169 296° West 386 444 26,000  Level Los Angeles Center
09:47PM 35.4408 -119.7556 297° West 384 442 26,000  Level Los Angeles Center
09:48PM 35.4864 -119.8706 296° West 380 437 26,000  Level Los Angeles Center
09:49PM 35.5339 -119.9861 297° West 380 437 26,000  Level Los Angeles Center
09:50PM 35.5806 -120.1031 296° West 382 440 26,000  Level Los Angeles Center
09:51PM 35.6272 -120.2217 296° West 386 444 26,000  Level Los Angeles Center
09:52PM 35.6828 -120.3603 296° West 386 444 26,000  Level Los Angeles Center
09:53PM 35.7292 -120.4769 296° West 385 443 26,000  Level Los Angeles Center
09:54PM 35.7758 -120.5975 296° West 389 448 26,000  Level Los Angeles Center
09:55PM 35.8247 -120.7203 296° West 398 458 26,000  Level Los Angeles Center
09:56PM 35.8733 -120.8439 296° West 402 463 26,000  Level Los Angeles Center
09:57PM 35.9222 -120.9689 296° West 405 466 26,000  Level Los Angeles Center
09:58PM 35.9803 -121.1214 295° West 409 471 26,000  Level Oakland Center
09:59PM 36.0464 -121.2319 307° West 408 470 26,000  Level Oakland Center
10:00PM 36.1350 -121.3197 321° Northwest 407 468 26,000  Level Oakland Center
10:01PM 36.2225 -121.4097 320° Northwest 408 470 26,000  Level Oakland Center
10:02PM 36.3086 -121.5006 320° Northwest 406 467 26,000  Level Oakland Center
10:03PM 36.3942 -121.5917 319° Northwest 405 466 26,000  Level Oakland Center
10:04PM 36.4972 -121.6986 320° Northwest 403 464 26,000 -960 Level Oakland Center
10:05PM 36.5833 -121.7833 322° Northwest 406 467 24,100 -2,520 Descending Northern Cal TRACON
10:06PM 36.6667 -121.8667 321° Northwest 380 437 21,100 -3,060 Descending Northern Cal TRACON
10:07PM 36.7333 -121.9500 315° West 362 417 18,300 -3,000 Descending Northern Cal TRACON
10:08PM 36.8167 -121.9833 342° North 348 400 15,400 -1,620 Descending Northern Cal TRACON
10:09PM 36.9167 -122.0167 345° North 340 391 15,100 -360 Descending Northern Cal TRACON
10:10PM 37.0000 -122.0333 351° North 313 360 14,700 -840 Descending Northern Cal TRACON
10:11PM 37.0833 -122.0500 351° North 265 305 13,500 -1,200 Descending Northern Cal TRACON
10:12PM 37.1333 -122.1000 321° Northwest 234 269 12,400 -1,260 Descending Northern Cal TRACON
10:13PM 37.1500 -122.1667 287° West 230 265 11,000 -1,440 Descending Northern Cal TRACON
10:14PM 37.1667 -122.2500 284° West 222 255 9,400 -1,500 Descending Northern Cal TRACON
10:15PM 37.1833 -122.3167 287° West 223 257 8,100 -660 Descending Northern Cal TRACON
10:16PM 37.2333 -122.3667 321° Northwest 213 245 8,100 -600 Level Northern Cal TRACON
10:17PM 37.3000 -122.3500 11° North 210 242 6,900 -1,020 Descending Northern Cal TRACON
10:18PM 37.3500 -122.3333 15° North 216 249 6,100 -420 Descending Northern Cal TRACON
10:19PM 37.4000 -122.3167 15° North 212 244 6,100  Level Northern Cal TRACON
10:20PM 37.4500 -122.2667 38° Northeast 230 265 6,100  Level Northern Cal TRACON
10:21PM 37.4333 -122.1833 104° East 217 250 6,100  Level Northern Cal TRACON
10:22PM 37.4333 -122.1167 90° East 200 230 6,100 -480 Level Northern Cal TRACON
10:23PM 37.4667 -122.0833 38° Northeast 195 224 5,200 -1,020 Descending Northern Cal TRACON
10:24PM 37.5167 -122.1167 332° Northwest 193 222 4,100 -1,080 Descending Northern Cal TRACON
10:25PM 37.5333 -122.1833 288° West 183 211 3,100 -900 Descending Northern Cal TRACON
10:26PM 37.5500 -122.2333 293° West 158 182 2,300 -840 Descending Northern Cal TRACON
10:27PM 37.5833 -122.2667 322° Northwest 143 165 1,500 -720 Descending Northern Cal TRACON
10:28PM 37.5833 -122.3000 270° West 115 132 1,000 -600 Descending Northern Cal TRACON
10:29PM 37.5986 -122.3286 304° West 129 148 600 -720 Descending Oakland Center